Time;durP1;ratioP1;P1;durP2;ratioP2;P2;SDS_P1;SDS_P2;PMS_P1;PMS_P2;Temp;Humidity;BMP_temperature;BMP_pressure;BME280_temperature;BME280_humidity;BME280_pressure;Samples;Min_cycle;Max_cycle;Signal;HPM_P1;HPM_P2
2023/06/26 00:01:53;;;;;;;15.55;10.90;;;;;;;;;;5080257;28;20044;-83
2023/06/26 00:04:44;;;;;;;15.23;10.57;;;;;;;;;;5074440;28;20044;-84
2023/06/26 00:07:50;;;;;;;15.60;10.82;;;;;;;;;;5074177;28;20040;-84
2023/06/26 00:10:57;;;;;;;16.60;11.13;;;;;;;;;;5073326;28;20040;-85
2023/06/26 00:13:54;;;;;;;16.67;11.00;;;;;;;;;;5080120;28;20429;-84
2023/06/26 00:16:56;;;;;;;16.55;11.02;;;;;;;;;;5066995;28;20044;-84
2023/06/26 00:20:05;;;;;;;17.10;11.23;;;;;;;;;;5065733;28;20048;-84
2023/06/26 00:22:53;;;;;;;16.00;10.52;;;;;;;;;;5079929;28;20048;-84
2023/06/26 00:25:42;;;;;;;15.60;11.27;;;;;;;;;;5073938;28;20044;-84
2023/06/26 00:28:31;;;;;;;16.90;11.07;;;;;;;;;;5073120;28;20036;-84
2023/06/26 00:31:27;;;;;;;17.77;11.35;;;;;;;;;;5100741;28;20517;-82
2023/06/26 00:34:24;;;;;;;15.90;10.38;;;;;;;;;;5091295;28;20052;-85
2023/06/26 00:37:10;;;;;;;17.00;10.98;;;;;;;;;;5084319;28;20036;-84
2023/06/26 00:39:56;;;;;;;20.42;10.73;;;;;;;;;;5065840;28;20068;-84
2023/06/26 00:42:41;;;;;;;16.95;11.05;;;;;;;;;;5074282;28;20048;-83
2023/06/26 00:45:33;;;;;;;13.68;10.73;;;;;;;;;;5073161;28;20056;-84
2023/06/26 00:48:19;;;;;;;21.23;11.38;;;;;;;;;;5065759;28;20033;-84
2023/06/26 00:51:09;;;;;;;14.77;11.18;;;;;;;;;;5065752;28;20044;-85
2023/06/26 00:54:04;;;;;;;14.65;10.75;;;;;;;;;;5064867;28;20036;-84
2023/06/26 00:57:03;;;;;;;20.27;11.45;;;;;;;;;;5074553;28;20060;-83
2023/06/26 00:59:48;;;;;;;18.42;11.57;;;;;;;;;;5065605;28;20036;-84
2023/06/26 01:02:56;;;;;;;;;;;;;;;;;;;;;
2023/06/26 01:05:45;;;;;;;16.48;11.48;;;;;;;;;;5079230;28;20040;-84
2023/06/26 01:08:30;;;;;;;20.45;12.57;;;;;;;;;;5079631;28;20044;-84
2023/06/26 01:11:16;;;;;;;21.60;13.00;;;;;;;;;;5079927;28;20033;-84
2023/06/26 01:14:02;;;;;;;29.50;14.18;;;;;;;;;;5073418;28;20048;-85
2023/06/26 01:16:49;;;;;;;18.77;13.18;;;;;;;;;;5079377;28;20048;-85
2023/06/26 01:19:34;;;;;;;26.63;15.07;;;;;;;;;;5069232;28;20048;-85
2023/06/26 01:22:27;;;;;;;24.70;14.73;;;;;;;;;;5076844;28;20048;-86
2023/06/26 01:25:38;;;;;;;23.17;15.25;;;;;;;;;;5083865;28;20044;-87
2023/06/26 01:28:25;;;;;;;28.08;14.95;;;;;;;;;;5076065;28;20049;-86
2023/06/26 01:31:11;;;;;;;23.92;13.77;;;;;;;;;;5083031;28;20052;-86
2023/06/26 01:33:58;;;;;;;21.38;14.10;;;;;;;;;;5069027;28;20045;-84
2023/06/26 01:36:48;;;;;;;19.67;14.45;;;;;;;;;;5076377;28;20037;-85
2023/06/26 01:39:33;;;;;;;21.25;14.77;;;;;;;;;;5077083;28;20044;-84
2023/06/26 01:42:37;;;;;;;23.60;14.73;;;;;;;;;;5077227;28;20045;-86
2023/06/26 01:45:28;;;;;;;22.65;13.65;;;;;;;;;;5069000;28;20048;-85
2023/06/26 01:48:16;;;;;;;23.13;14.52;;;;;;;;;;5082829;28;20040;-84
2023/06/26 01:51:30;;;;;;;24.58;14.82;;;;;;;;;;5082665;28;20476;-85
2023/06/26 01:54:41;;;;;;;19.80;13.82;;;;;;;;;;5077245;28;20036;-84
2023/06/26 01:57:36;;;;;;;21.90;14.85;;;;;;;;;;5075657;28;20413;-84
2023/06/26 02:00:28;;;;;;;19.42;14.38;;;;;;;;;;5068837;28;20048;-85
2023/06/26 02:03:15;;;;;;;23.17;14.85;;;;;;;;;;5082748;28;20048;-84
2023/06/26 02:06:01;;;;;;;20.92;15.13;;;;;;;;;;5076121;28;20056;-85
2023/06/26 02:08:46;;;;;;;26.83;16.38;;;;;;;;;;5076847;28;20048;-84
2023/06/26 02:11:32;;;;;;;23.38;14.35;;;;;;;;;;5076855;28;20041;-85
2023/06/26 02:14:18;;;;;;;21.13;14.45;;;;;;;;;;5077045;28;20044;-85
2023/06/26 02:17:08;;;;;;;23.65;14.95;;;;;;;;;;5075191;28;20041;-85
2023/06/26 02:20:20;;;;;;;25.75;15.30;;;;;;;;;;5075442;28;20405;-82
2023/06/26 02:23:14;;;;;;;20.85;14.68;;;;;;;;;;5075553;28;20044;-85
2023/06/26 02:26:00;;;;;;;22.95;15.63;;;;;;;;;;5068234;28;20493;-82
2023/06/26 02:28:49;;;;;;;28.02;16.08;;;;;;;;;;5080907;28;20036;-83
2023/06/26 02:31:34;;;;;;;25.00;16.35;;;;;;;;;;5068139;28;20040;-83
2023/06/26 02:34:23;;;;;;;27.02;16.27;;;;;;;;;;5068206;28;20401;-83
2023/06/26 02:37:18;;;;;;;27.85;16.25;;;;;;;;;;5082162;28;20044;-83
2023/06/26 02:40:09;;;;;;;20.65;15.88;;;;;;;;;;5067752;28;20056;-81
2023/06/26 02:42:55;;;;;;;25.10;16.73;;;;;;;;;;5082328;28;20048;-83
2023/06/26 02:45:42;;;;;;;24.48;16.33;;;;;;;;;;5068631;28;20044;-83
2023/06/26 02:48:28;;;;;;;25.33;17.38;;;;;;;;;;5081852;28;20036;-84
2023/06/26 02:51:13;;;;;;;30.52;17.40;;;;;;;;;;5081965;28;20045;-84
2023/06/26 02:53:59;;;;;;;26.85;18.02;;;;;;;;;;5075169;28;20045;-84
2023/06/26 02:56:44;;;;;;;31.58;18.58;;;;;;;;;;5077813;28;20405;-83
2023/06/26 02:59:30;;;;;;;27.35;18.35;;;;;;;;;;5067549;28;20048;-86
2023/06/26 03:02:15;;;;;;;30.65;19.45;;;;;;;;;;5082501;28;20052;-84
2023/06/26 03:05:04;;;;;;;35.75;18.95;;;;;;;;;;5081404;28;20040;-84
2023/06/26 03:07:49;;;;;;;32.25;19.35;;;;;;;;;;5074769;28;20470;-84
2023/06/26 03:10:35;;;;;;;35.55;19.38;;;;;;;;;;5081328;28;20041;-84
2023/06/26 03:13:21;;;;;;;34.45;21.23;;;;;;;;;;5081615;28;20048;-86
2023/06/26 03:16:06;;;;;;;40.95;21.13;;;;;;;;;;5081318;28;20036;-84
2023/06/26 03:18:52;;;;;;;36.15;21.50;;;;;;;;;;5080993;28;20045;-83
2023/06/26 03:21:38;;;;;;;35.72;22.83;;;;;;;;;;5081159;28;20044;-83
2023/06/26 03:24:24;;;;;;;36.33;22.40;;;;;;;;;;5081154;28;20044;-84
2023/06/26 03:27:09;;;;;;;37.78;22.85;;;;;;;;;;5081489;28;20032;-84
2023/06/26 03:29:55;;;;;;;35.42;22.60;;;;;;;;;;5080892;28;20048;-84
2023/06/26 03:32:42;;;;;;;44.40;23.75;;;;;;;;;;5081050;28;20044;-84
2023/06/26 03:35:27;;;;;;;31.30;22.00;;;;;;;;;;5080983;28;20048;-84
2023/06/26 03:38:13;;;;;;;33.13;21.50;;;;;;;;;;5080928;28;20049;-84
2023/06/26 03:41:00;;;;;;;33.20;22.15;;;;;;;;;;5080745;28;20057;-85
2023/06/26 03:43:46;;;;;;;34.10;21.83;;;;;;;;;;5066795;28;20040;-85
2023/06/26 03:46:36;;;;;;;30.75;22.60;;;;;;;;;;5080841;28;20413;-86
2023/06/26 03:49:22;;;;;;;36.78;22.08;;;;;;;;;;5075006;28;20095;-85
2023/06/26 03:52:09;;;;;;;31.55;22.90;;;;;;;;;;5080727;28;20044;-85
2023/06/26 03:55:04;;;;;;;31.65;22.23;;;;;;;;;;5066913;28;20044;-85
2023/06/26 03:57:55;;;;;;;30.02;21.73;;;;;;;;;;5080223;28;20041;-85
2023/06/26 04:04:49;;;;;;;32.05;21.25;;;;;;;;;;5072835;28;20397;-85
2023/06/26 04:08:22;;;;;;;28.77;21.35;;;;;;;;;;5079989;28;20036;-85
2023/06/26 04:11:26;;;;;;;31.88;22.73;;;;;;;;;;5058125;28;20052;-85
2023/06/26 04:14:20;;;;;;;38.13;22.25;;;;;;;;;;5067338;28;20044;-82
2023/06/26 04:18:15;;;;;;;;;;;;;;;;;;;;;
2023/06/26 04:35:36;;;;;;;31.63;21.05;;;;;;;;;;5009667;28;20042;-85
2023/06/26 04:39:23;;;;;;;31.17;21.27;;;;;;;;;;4994489;28;20045;-84
2023/06/26 04:42:21;;;;;;;32.22;21.25;;;;;;;;;;5031862;28;20482;-84
2023/06/26 04:45:07;;;;;;;31.63;20.98;;;;;;;;;;5059539;22;20049;-86
2023/06/26 04:47:52;;;;;;;30.20;21.45;;;;;;;;;;5061354;28;20037;-86
2023/06/26 04:50:38;;;;;;;28.02;20.05;;;;;;;;;;5053952;28;20478;-86
2023/06/26 04:53:24;;;;;;;27.08;19.55;;;;;;;;;;5053417;28;20052;-86
2023/06/26 04:56:11;;;;;;;19.63;16.65;;;;;;;;;;5052241;28;20041;-86
2023/06/26 04:58:56;;;;;;;27.98;18.15;;;;;;;;;;5053596;28;20049;-86
2023/06/26 05:01:42;;;;;;;21.05;13.60;;;;;;;;;;5052200;28;20079;-86
2023/06/26 05:04:27;;;;;;;20.48;14.85;;;;;;;;;;5059321;28;20045;-86
2023/06/26 05:07:12;;;;;;;21.38;15.45;;;;;;;;;;5059686;28;20045;-86
2023/06/26 05:09:58;;;;;;;24.67;16.90;;;;;;;;;;5054194;28;20040;-86
2023/06/26 05:12:44;;;;;;;34.25;27.45;;;;;;;;;;5053883;28;20041;-86
2023/06/26 05:15:29;;;;;;;25.08;18.42;;;;;;;;;;5053070;28;20041;-84
2023/06/26 05:18:15;;;;;;;198.68;153.70;;;;;;;;;;5053859;28;20509;-84
2023/06/26 05:21:01;;;;;;;44.40;35.80;;;;;;;;;;5059108;28;20053;-84
2023/06/26 05:23:47;;;;;;;373.65;301.08;;;;;;;;;;5052713;28;20053;-85
2023/06/26 05:26:32;;;;;;;25.17;19.10;;;;;;;;;;5052650;28;20049;-83
2023/06/26 05:29:17;;;;;;;124.03;107.65;;;;;;;;;;5053575;28;20045;-83
2023/06/26 05:32:03;;;;;;;27.42;20.33;;;;;;;;;;5059449;28;20041;-83
2023/06/26 05:34:49;;;;;;;29.00;22.73;;;;;;;;;;5052715;28;20053;-84
2023/06/26 05:37:34;;;;;;;17.02;12.50;;;;;;;;;;5053959;28;20045;-83
2023/06/26 05:40:20;;;;;;;16.13;10.93;;;;;;;;;;5058760;28;20040;-83
2023/06/26 05:43:05;;;;;;;18.15;12.07;;;;;;;;;;5073301;28;20037;-83
2023/06/26 05:45:51;;;;;;;15.85;11.02;;;;;;;;;;5072439;28;20049;-82
2023/06/26 05:48:36;;;;;;;13.43;10.90;;;;;;;;;;5063825;28;20041;-83
2023/06/26 05:51:22;;;;;;;14.68;10.77;;;;;;;;;;5053329;28;20486;-84
2023/06/26 05:54:08;;;;;;;16.00;12.90;;;;;;;;;;5053864;28;20052;-84
2023/06/26 05:56:56;;;;;;;15.43;11.30;;;;;;;;;;5060015;28;20078;-82
2023/06/26 05:59:43;;;;;;;16.73;12.05;;;;;;;;;;5053876;28;20056;-82
2023/06/26 06:02:28;;;;;;;17.55;12.00;;;;;;;;;;5053590;28;20041;-83
2023/06/26 06:05:14;;;;;;;17.02;13.02;;;;;;;;;;5057154;28;20036;-83
2023/06/26 06:07:59;;;;;;;21.95;13.70;;;;;;;;;;5057411;28;20048;-83
2023/06/26 06:10:45;;;;;;;15.00;13.02;;;;;;;;;;5056488;28;20045;-83
2023/06/26 06:13:31;;;;;;;17.42;13.70;;;;;;;;;;5056930;28;20494;-83
2023/06/26 06:16:17;;;;;;;18.08;14.10;;;;;;;;;;5056706;28;20037;-83
2023/06/26 06:19:03;;;;;;;19.55;14.57;;;;;;;;;;5056299;28;20041;-83
2023/06/26 06:21:48;;;;;;;18.88;15.25;;;;;;;;;;5056307;28;20577;-83
2023/06/26 06:24:34;;;;;;;18.77;14.55;;;;;;;;;;5056632;28;20048;-84
2023/06/26 06:27:19;;;;;;;19.00;14.13;;;;;;;;;;5055772;28;20048;-83
2023/06/26 06:30:06;;;;;;;16.73;13.82;;;;;;;;;;5055524;28;20390;-84
2023/06/26 06:32:52;;;;;;;15.80;11.88;;;;;;;;;;5056900;28;20041;-84
2023/06/26 06:35:38;;;;;;;16.50;13.50;;;;;;;;;;5055297;28;20045;-84
2023/06/26 06:38:23;;;;;;;18.55;13.82;;;;;;;;;;5055854;28;20493;-83
2023/06/26 06:41:09;;;;;;;18.25;13.75;;;;;;;;;;5056366;28;20045;-85
2023/06/26 06:43:54;;;;;;;19.88;14.90;;;;;;;;;;5056363;28;20041;-85
2023/06/26 06:46:40;;;;;;;16.33;13.98;;;;;;;;;;5056622;28;20052;-83
2023/06/26 06:49:25;;;;;;;17.20;14.13;;;;;;;;;;5062860;28;20041;-83
2023/06/26 06:52:11;;;;;;;17.35;14.05;;;;;;;;;;5062929;28;20041;-82
2023/06/26 06:54:58;;;;;;;18.77;13.80;;;;;;;;;;5062769;28;20398;-83
2023/06/26 06:57:44;;;;;;;19.02;13.43;;;;;;;;;;5061669;28;20045;-82
2023/06/26 07:00:31;;;;;;;18.00;13.90;;;;;;;;;;5056028;28;20045;-82
2023/06/26 07:03:16;;;;;;;15.73;12.93;;;;;;;;;;5054924;28;20040;-81
2023/06/26 07:06:03;;;;;;;16.10;14.25;;;;;;;;;;5054714;28;20049;-83
2023/06/26 07:08:48;;;;;;;16.88;14.13;;;;;;;;;;5056009;28;20371;-83
2023/06/26 07:11:33;;;;;;;13.65;11.35;;;;;;;;;;5061035;28;20045;-83
2023/06/26 07:14:19;;;;;;;18.85;12.82;;;;;;;;;;5055758;28;20490;-83
2023/06/26 07:17:04;;;;;;;14.77;12.77;;;;;;;;;;5062523;28;20049;-84
2023/06/26 07:19:50;;;;;;;12.93;10.80;;;;;;;;;;5055468;28;20049;-82
2023/06/26 07:22:36;;;;;;;13.68;11.68;;;;;;;;;;5055355;28;20045;-83
2023/06/26 07:25:22;;;;;;;14.82;12.38;;;;;;;;;;5054413;28;20044;-82
2023/06/26 07:28:11;;;;;;;13.63;11.63;;;;;;;;;;5054567;28;20057;-83
2023/06/26 07:30:57;;;;;;;12.38;11.07;;;;;;;;;;5055694;28;20045;-83
2023/06/26 07:33:42;;;;;;;15.63;11.60;;;;;;;;;;5055287;28;20044;-82
2023/06/26 07:36:28;;;;;;;11.82;10.50;;;;;;;;;;5055231;28;20044;-83
2023/06/26 07:39:14;;;;;;;13.60;10.32;;;;;;;;;;5054919;28;20045;-84
2023/06/26 07:41:59;;;;;;;19.10;11.35;;;;;;;;;;5060717;28;20497;-83
2023/06/26 07:44:44;;;;;;;14.32;11.50;;;;;;;;;;5054686;28;20037;-84
2023/06/26 07:47:30;;;;;;;12.40;10.85;;;;;;;;;;5061836;28;20397;-83
2023/06/26 07:50:22;;;;;;;10.43;9.38;;;;;;;;;;5054637;28;20037;-83
2023/06/26 07:53:06;;;;;;;11.18;8.73;;;;;;;;;;5054315;28;20053;-83
2023/06/26 07:55:52;;;;;;;10.40;8.60;;;;;;;;;;5054837;28;20486;-83
2023/06/26 07:58:38;;;;;;;11.27;8.68;;;;;;;;;;5061193;28;20045;-83
2023/06/26 08:01:24;;;;;;;12.55;8.45;;;;;;;;;;5054377;28;20045;-83
2023/06/26 08:04:10;;;;;;;11.05;8.48;;;;;;;;;;5060409;28;20045;-84
2023/06/26 08:06:57;;;;;;;10.00;8.10;;;;;;;;;;5054870;28;20045;-85
2023/06/26 08:09:42;;;;;;;11.07;9.35;;;;;;;;;;5054313;28;20048;-81
2023/06/26 08:12:28;;;;;;;11.15;8.68;;;;;;;;;;5054161;28;20041;-84
2023/06/26 08:15:13;;;;;;;11.68;7.88;;;;;;;;;;5054459;28;20045;-84
2023/06/26 08:17:59;;;;;;;17.88;8.23;;;;;;;;;;5054205;28;20041;-83
2023/06/26 08:20:44;;;;;;;9.23;6.70;;;;;;;;;;5061191;28;20044;-83
2023/06/26 08:23:30;;;;;;;8.25;6.75;;;;;;;;;;5060194;28;20402;-79
2023/06/26 08:26:15;;;;;;;8.50;7.55;;;;;;;;;;5060609;28;20037;-79
2023/06/26 08:29:01;;;;;;;7.68;5.18;;;;;;;;;;5054316;28;20485;-79
2023/06/26 08:31:46;;;;;;;7.80;6.38;;;;;;;;;;5054453;28;20037;-78
2023/06/26 08:34:30;;;;;;;7.80;5.65;;;;;;;;;;5060133;28;20049;-77
2023/06/26 08:37:16;;;;;;;9.73;6.60;;;;;;;;;;5053705;28;20045;-78
2023/06/26 08:40:02;;;;;;;9.25;6.32;;;;;;;;;;5053751;28;20049;-79
2023/06/26 08:42:47;;;;;;;9.13;6.30;;;;;;;;;;5060449;28;20041;-78
2023/06/26 08:45:33;;;;;;;9.88;6.05;;;;;;;;;;5054981;28;20049;-74
2023/06/26 08:48:21;;;;;;;9.73;5.97;;;;;;;;;;5053746;28;20041;-78
2023/06/26 08:51:11;;;;;;;13.05;6.43;;;;;;;;;;5053827;28;20399;-78
2023/06/26 08:53:58;;;;;;;7.90;6.07;;;;;;;;;;5060570;28;20045;-75
2023/06/26 08:56:47;;;;;;;8.25;6.43;;;;;;;;;;5053816;28;20041;-74
2023/06/26 08:59:33;;;;;;;10.00;6.03;;;;;;;;;;5053470;28;20053;-77
2023/06/26 09:02:20;;;;;;;6.35;5.47;;;;;;;;;;5059856;28;20041;-79
2023/06/26 09:05:06;;;;;;;7.43;5.60;;;;;;;;;;5053756;28;20490;-78
2023/06/26 09:07:55;;;;;;;7.40;5.35;;;;;;;;;;5059985;28;20153;-78
2023/06/26 09:10:40;;;;;;;8.73;5.93;;;;;;;;;;5054856;28;20502;-79
2023/06/26 09:13:28;;;;;;;10.27;6.35;;;;;;;;;;5054945;28;20040;-77
2023/06/26 09:16:13;;;;;;;9.07;5.93;;;;;;;;;;5053250;28;20049;-77
2023/06/26 09:18:59;;;;;;;7.55;5.53;;;;;;;;;;5053393;28;20045;-77
2023/06/26 09:21:44;;;;;;;9.45;6.15;;;;;;;;;;5060207;28;20048;-75
2023/06/26 09:24:31;;;;;;;7.45;5.93;;;;;;;;;;5054031;28;20470;-79
2023/06/26 09:27:17;;;;;;;7.78;5.95;;;;;;;;;;5060050;28;20041;-79
2023/06/26 09:30:03;;;;;;;7.28;5.60;;;;;;;;;;5053260;28;20045;-78
2023/06/26 09:32:50;;;;;;;7.68;5.45;;;;;;;;;;5053454;28;20513;-79
2023/06/26 09:35:35;;;;;;;7.22;6.18;;;;;;;;;;5053337;28;20052;-77
2023/06/26 09:38:21;;;;;;;7.15;6.10;;;;;;;;;;5054303;28;20037;-77
2023/06/26 09:41:07;;;;;;;8.15;5.03;;;;;;;;;;5056816;28;20485;-77
2023/06/26 09:43:52;;;;;;;7.07;5.18;;;;;;;;;;5057094;28;20390;-77
2023/06/26 09:46:38;;;;;;;6.93;5.35;;;;;;;;;;5057254;28;20040;-77
2023/06/26 09:49:24;;;;;;;5.88;4.80;;;;;;;;;;5057154;28;20487;-78
2023/06/26 09:52:09;;;;;;;14.57;5.85;;;;;;;;;;5057787;28;20041;-83
2023/06/26 09:55:10;;;;;;;6.57;5.35;;;;;;;;;;5063779;28;20041;-79
2023/06/26 09:57:58;;;;;;;9.20;4.65;;;;;;;;;;5057020;28;20049;-77
2023/06/26 10:00:44;;;;;;;5.97;4.50;;;;;;;;;;5056812;28;20041;-77
2023/06/26 10:03:29;;;;;;;5.95;5.15;;;;;;;;;;5056358;28;20049;-79
2023/06/26 10:06:19;;;;;;;6.40;4.97;;;;;;;;;;5056974;28;20049;-78
2023/06/26 10:09:05;;;;;;;6.00;4.40;;;;;;;;;;5063222;28;20040;-77
2023/06/26 10:12:17;;;;;;;6.07;5.05;;;;;;;;;;5063888;28;20049;-77
2023/06/26 10:15:04;;;;;;;7.97;4.78;;;;;;;;;;5065696;28;20045;-78
2023/06/26 10:17:50;;;;;;;6.63;4.68;;;;;;;;;;5063110;28;20037;-78
2023/06/26 10:20:36;;;;;;;6.00;4.80;;;;;;;;;;5063805;28;20048;-77
2023/06/26 10:23:24;;;;;;;10.77;4.63;;;;;;;;;;5056338;28;20045;-81
2023/06/26 10:26:11;;;;;;;9.13;4.70;;;;;;;;;;5056309;28;20037;-81
2023/06/26 10:28:57;;;;;;;7.20;4.55;;;;;;;;;;5056658;28;20048;-81
2023/06/26 10:31:54;;;;;;;10.70;5.22;;;;;;;;;;5057108;28;20036;-80
2023/06/26 10:34:40;;;;;;;5.28;4.53;;;;;;;;;;5062688;28;20045;-77
2023/06/26 10:37:42;;;;;;;6.82;4.65;;;;;;;;;;5062869;28;20044;-78
2023/06/26 10:40:40;;;;;;;5.20;4.40;;;;;;;;;;5062545;28;20045;-80
2023/06/26 10:43:29;;;;;;;5.95;4.07;;;;;;;;;;5056250;28;20041;-76
2023/06/26 10:46:19;;;;;;;5.88;4.30;;;;;;;;;;5055682;28;20041;-76
2023/06/26 10:49:12;;;;;;;4.63;3.50;;;;;;;;;;5062571;28;20049;-78
2023/06/26 10:52:01;;;;;;;7.25;4.07;;;;;;;;;;5062691;28;20049;-76
2023/06/26 10:54:46;;;;;;;6.25;4.88;;;;;;;;;;5055722;28;20037;-75
2023/06/26 10:57:32;;;;;;;4.88;4.10;;;;;;;;;;5066482;28;20056;-79
2023/06/26 11:00:18;;;;;;;7.78;4.63;;;;;;;;;;5072760;28;20048;-80
2023/06/26 11:03:22;;;;;;;5.00;4.10;;;;;;;;;;5064814;28;20041;-79
2023/06/26 11:06:15;;;;;;;4.97;4.07;;;;;;;;;;5065978;28;20049;-79
2023/06/26 11:09:14;;;;;;;6.30;4.38;;;;;;;;;;5057304;28;20041;-79
2023/06/26 11:12:04;;;;;;;5.40;4.53;;;;;;;;;;5065526;28;20056;-77
2023/06/26 11:14:51;;;;;;;7.45;5.00;;;;;;;;;;5064565;28;20041;-77
2023/06/26 11:17:37;;;;;;;7.72;4.30;;;;;;;;;;5057180;28;20038;-79
2023/06/26 11:20:23;;;;;;;8.15;5.13;;;;;;;;;;5063611;28;20397;-79
2023/06/26 11:23:09;;;;;;;7.78;4.10;;;;;;;;;;5064045;28;20045;-79
2023/06/26 11:26:22;;;;;;;4.85;3.97;;;;;;;;;;5057028;28;20045;-78
2023/06/26 11:29:08;;;;;;;6.55;4.97;;;;;;;;;;5063714;28;20053;-78
2023/06/26 11:32:00;;;;;;;5.90;4.18;;;;;;;;;;5056456;28;20033;-79
2023/06/26 11:34:47;;;;;;;5.20;4.07;;;;;;;;;;5063371;28;20045;-76
2023/06/26 11:37:33;;;;;;;6.68;4.30;;;;;;;;;;5056009;28;20033;-78
2023/06/26 11:40:19;;;;;;;5.28;4.60;;;;;;;;;;5063061;28;20041;-77
2023/06/26 11:43:06;;;;;;;4.95;4.10;;;;;;;;;;5062303;28;20044;-78
2023/06/26 11:45:51;;;;;;;6.97;4.60;;;;;;;;;;5055015;28;20037;-77
2023/06/26 11:48:36;;;;;;;7.60;4.50;;;;;;;;;;5055020;28;20053;-77
2023/06/26 11:51:22;;;;;;;6.90;4.43;;;;;;;;;;5054117;28;20048;-78
2023/06/26 11:54:08;;;;;;;7.72;4.30;;;;;;;;;;5054919;28;20049;-78
2023/06/26 11:56:58;;;;;;;6.78;4.75;;;;;;;;;;5061457;28;20045;-75
2023/06/26 11:59:44;;;;;;;6.25;4.10;;;;;;;;;;5061448;28;20057;-77
2023/06/26 12:02:29;;;;;;;5.43;4.57;;;;;;;;;;5054830;28;20049;-77
2023/06/26 12:05:20;;;;;;;5.10;4.15;;;;;;;;;;5055045;28;20037;-77
2023/06/26 12:08:06;;;;;;;5.20;4.20;;;;;;;;;;5053661;28;20040;-77
2023/06/26 12:10:52;;;;;;;6.28;4.70;;;;;;;;;;5054814;28;20049;-80
2023/06/26 12:13:38;;;;;;;5.63;4.10;;;;;;;;;;5054650;28;20037;-79
2023/06/26 12:16:25;;;;;;;8.07;4.20;;;;;;;;;;5054330;28;20045;-77
2023/06/26 12:19:09;;;;;;;5.75;4.72;;;;;;;;;;5060013;28;20041;-78
2023/06/26 12:21:56;;;;;;;6.75;4.60;;;;;;;;;;5054096;28;20045;-79
2023/06/26 12:24:42;;;;;;;6.30;4.80;;;;;;;;;;5061761;28;20041;-80
2023/06/26 12:27:29;;;;;;;7.22;4.70;;;;;;;;;;5059933;28;20406;-81
2023/06/26 12:30:14;;;;;;;4.75;4.10;;;;;;;;;;5061220;28;20045;-80
2023/06/26 12:33:00;;;;;;;5.47;4.15;;;;;;;;;;5063777;28;20044;-85
2023/06/26 12:35:45;;;;;;;5.50;4.63;;;;;;;;;;5055350;28;20049;-88
2023/06/26 12:38:34;;;;;;;5.75;4.45;;;;;;;;;;5054377;28;20053;-77
2023/06/26 12:41:20;;;;;;;5.75;4.57;;;;;;;;;;5060633;28;20053;-77
2023/06/26 12:44:15;;;;;;;6.43;4.40;;;;;;;;;;5053797;28;20049;-77
2023/06/26 12:47:01;;;;;;;7.18;4.93;;;;;;;;;;5054174;28;20112;-79
2023/06/26 12:49:50;;;;;;;5.72;4.60;;;;;;;;;;5060480;28;20490;-80
2023/06/26 12:52:36;;;;;;;5.82;4.32;;;;;;;;;;5060299;28;20053;-77
2023/06/26 12:55:21;;;;;;;8.80;4.93;;;;;;;;;;5052839;28;20057;-79
2023/06/26 12:58:07;;;;;;;6.65;4.38;;;;;;;;;;5053388;28;20044;-77
2023/06/26 13:00:53;;;;;;;7.53;4.60;;;;;;;;;;5053785;28;20061;-79
2023/06/26 13:03:40;;;;;;;6.18;4.57;;;;;;;;;;5059319;28;20044;-79
2023/06/26 13:06:25;;;;;;;6.53;5.18;;;;;;;;;;5053736;28;20045;-80
2023/06/26 13:09:11;;;;;;;4.88;4.15;;;;;;;;;;5053240;28;20041;-78
2023/06/26 13:11:56;;;;;;;5.20;4.40;;;;;;;;;;5060588;28;20045;-76
2023/06/26 13:14:41;;;;;;;7.70;5.10;;;;;;;;;;5053865;28;20045;-78
2023/06/26 13:17:27;;;;;;;6.80;4.35;;;;;;;;;;5053372;28;20103;-79
2023/06/26 13:20:13;;;;;;;6.75;4.82;;;;;;;;;;5056970;28;20044;-81
2023/06/26 13:22:59;;;;;;;6.28;4.40;;;;;;;;;;5054913;28;20398;-78
2023/06/26 13:25:45;;;;;;;8.32;4.88;;;;;;;;;;5055199;28;20045;-78
2023/06/26 13:28:30;;;;;;;8.07;5.00;;;;;;;;;;5053595;28;20045;-77
2023/06/26 13:31:16;;;;;;;8.77;4.68;;;;;;;;;;5053916;28;20041;-80
2023/06/26 13:34:03;;;;;;;9.05;4.22;;;;;;;;;;5059945;28;20049;-80
2023/06/26 13:36:50;;;;;;;6.15;4.15;;;;;;;;;;5053552;28;20044;-79
2023/06/26 13:39:35;;;;;;;6.40;4.47;;;;;;;;;;5052603;28;20042;-78
2023/06/26 13:42:21;;;;;;;5.22;4.63;;;;;;;;;;5055916;28;20045;-82
2023/06/26 13:45:06;;;;;;;8.48;4.90;;;;;;;;;;5053687;28;20049;-77
2023/06/26 13:47:53;;;;;;;7.28;5.20;;;;;;;;;;5059651;28;20413;-77
2023/06/26 13:50:38;;;;;;;6.18;4.85;;;;;;;;;;5053319;28;20049;-76
2023/06/26 13:53:23;;;;;;;9.65;5.20;;;;;;;;;;5054061;28;20041;-77
2023/06/26 13:56:09;;;;;;;8.85;5.18;;;;;;;;;;5060229;28;20040;-77
2023/06/26 13:58:55;;;;;;;12.15;5.72;;;;;;;;;;5059272;28;20045;-80
2023/06/26 14:01:42;;;;;;;5.40;4.60;;;;;;;;;;5053100;28;20406;-77
2023/06/26 14:04:28;;;;;;;5.95;4.82;;;;;;;;;;5053393;28;20041;-80
2023/06/26 14:07:14;;;;;;;7.85;4.70;;;;;;;;;;5059630;28;20053;-76
2023/06/26 14:09:59;;;;;;;7.28;5.28;;;;;;;;;;5053072;28;20406;-79
2023/06/26 14:12:44;;;;;;;5.88;4.97;;;;;;;;;;5058096;28;20483;-77
2023/06/26 14:15:30;;;;;;;5.72;4.72;;;;;;;;;;5051163;28;20037;-77
2023/06/26 14:18:17;;;;;;;7.18;4.95;;;;;;;;;;5059346;28;20049;-77
2023/06/26 14:21:03;;;;;;;5.53;4.53;;;;;;;;;;5058307;28;20044;-77
2023/06/26 14:23:49;;;;;;;5.28;4.75;;;;;;;;;;5052031;28;20053;-75
2023/06/26 14:26:36;;;;;;;5.53;4.80;;;;;;;;;;5055262;28;20041;-80
2023/06/26 14:29:21;;;;;;;7.43;4.82;;;;;;;;;;5055394;28;20041;-79
2023/06/26 14:32:07;;;;;;;5.63;4.88;;;;;;;;;;5062423;28;20343;-77
2023/06/26 14:34:52;;;;;;;6.22;4.25;;;;;;;;;;5055832;28;20045;-78
2023/06/26 14:37:39;;;;;;;6.30;4.72;;;;;;;;;;5062388;28;20041;-79
2023/06/26 14:40:25;;;;;;;10.88;4.82;;;;;;;;;;5055836;28;20041;-78
2023/06/26 14:43:10;;;;;;;8.85;4.80;;;;;;;;;;5056423;28;20490;-76
2023/06/26 14:45:55;;;;;;;6.28;4.63;;;;;;;;;;5055560;28;20049;-79
2023/06/26 14:48:41;;;;;;;5.47;4.32;;;;;;;;;;5055857;28;20048;-78
2023/06/26 14:51:27;;;;;;;6.00;5.40;;;;;;;;;;5061522;28;20486;-78
2023/06/26 14:54:12;;;;;;;6.47;5.20;;;;;;;;;;5055773;28;20056;-76
2023/06/26 14:56:58;;;;;;;9.75;5.30;;;;;;;;;;5056117;28;20048;-77
2023/06/26 14:59:44;;;;;;;6.50;4.95;;;;;;;;;;5055477;28;20053;-76
2023/06/26 15:02:29;;;;;;;7.05;4.97;;;;;;;;;;5055748;28;20037;-77
2023/06/26 15:05:15;;;;;;;6.47;5.07;;;;;;;;;;5055180;28;20481;-78
2023/06/26 15:08:00;;;;;;;5.95;4.90;;;;;;;;;;5055769;28;20478;-78
2023/06/26 15:10:46;;;;;;;9.30;5.10;;;;;;;;;;5055913;28;20045;-78
2023/06/26 15:13:32;;;;;;;12.52;5.60;;;;;;;;;;5060974;28;20045;-79
2023/06/26 15:16:18;;;;;;;6.53;4.72;;;;;;;;;;5055468;28;20045;-79
2023/06/26 15:19:04;;;;;;;6.50;4.90;;;;;;;;;;5055345;28;20394;-79
2023/06/26 15:21:49;;;;;;;10.48;5.47;;;;;;;;;;5061826;28;20041;-78
2023/06/26 15:24:35;;;;;;;6.50;5.43;;;;;;;;;;5054550;28;20045;-78
2023/06/26 15:27:21;;;;;;;9.38;5.00;;;;;;;;;;5054491;28;20049;-78
2023/06/26 15:30:07;;;;;;;11.13;6.95;;;;;;;;;;5054697;28;20044;-79
2023/06/26 15:32:53;;;;;;;6.97;4.80;;;;;;;;;;5061754;28;20040;-77
2023/06/26 15:35:38;;;;;;;33.63;14.20;;;;;;;;;;5061074;28;20049;-76
2023/06/26 15:38:24;;;;;;;29.58;14.80;;;;;;;;;;5061409;28;20401;-78
2023/06/26 15:41:09;;;;;;;16.13;9.02;;;;;;;;;;5054809;28;20044;-79
2023/06/26 15:43:56;;;;;;;10.93;6.53;;;;;;;;;;5054886;28;20482;-79
2023/06/26 15:46:41;;;;;;;12.68;6.78;;;;;;;;;;5055066;28;20045;-79
2023/06/26 15:49:28;;;;;;;15.75;7.82;;;;;;;;;;5054584;28;20045;-78
2023/06/26 15:52:13;;;;;;;10.75;6.78;;;;;;;;;;5060807;28;20041;-77
2023/06/26 15:54:58;;;;;;;6.40;5.00;;;;;;;;;;5054516;28;20045;-80
2023/06/26 15:57:44;;;;;;;9.10;4.95;;;;;;;;;;5061219;28;20044;-77
2023/06/26 16:00:29;;;;;;;6.03;4.88;;;;;;;;;;5061443;28;20041;-78
2023/06/26 16:03:15;;;;;;;7.05;4.68;;;;;;;;;;5060880;28;20044;-79
2023/06/26 16:06:01;;;;;;;5.75;5.03;;;;;;;;;;5053567;28;20048;-78
2023/06/26 16:08:48;;;;;;;8.18;5.18;;;;;;;;;;5054598;28;20049;-79
2023/06/26 16:11:34;;;;;;;14.68;7.88;;;;;;;;;;5054310;28;20049;-79
2023/06/26 16:14:19;;;;;;;9.23;4.82;;;;;;;;;;5060170;28;20041;-77
2023/06/26 16:17:06;;;;;;;8.60;4.80;;;;;;;;;;5052176;28;20044;-77
2023/06/26 16:19:52;;;;;;;7.25;4.55;;;;;;;;;;5053832;28;20045;-77
2023/06/26 16:22:37;;;;;;;6.03;4.95;;;;;;;;;;5061199;28;20045;-79
2023/06/26 16:25:23;;;;;;;5.68;4.32;;;;;;;;;;5060955;28;20398;-80
2023/06/26 16:28:08;;;;;;;5.55;4.63;;;;;;;;;;5053583;28;20037;-78
2023/06/26 16:30:54;;;;;;;6.50;4.60;;;;;;;;;;5053214;28;20045;-77
2023/06/26 16:33:39;;;;;;;7.13;4.43;;;;;;;;;;5054233;28;20048;-77
2023/06/26 16:36:25;;;;;;;6.18;4.75;;;;;;;;;;5054196;28;20041;-78
2023/06/26 16:39:15;;;;;;;7.70;5.15;;;;;;;;;;5059683;28;20045;-77
2023/06/26 16:42:00;;;;;;;5.38;4.40;;;;;;;;;;5061073;28;20037;-79
2023/06/26 16:44:46;;;;;;;5.70;4.60;;;;;;;;;;5054918;28;20037;-78
2023/06/26 16:47:33;;;;;;;6.22;4.45;;;;;;;;;;5060118;28;20040;-77
2023/06/26 16:50:20;;;;;;;7.72;5.00;;;;;;;;;;5059651;28;20493;-75
2023/06/26 16:53:04;;;;;;;7.75;4.70;;;;;;;;;;5052859;28;20049;-77